createdAt,value
2023-05-08T00:01:01.416Z,86.95
2023-05-08T00:03:28.443Z,86.64
2023-05-08T00:05:58.277Z,86.91
2023-05-08T00:08:25.395Z,86.91
2023-05-08T00:10:52.171Z,86.25
2023-05-08T00:13:19.320Z,86.71
2023-05-08T00:15:46.416Z,86.20
2023-05-08T00:18:13.289Z,86.39
2023-05-08T00:20:40.306Z,86.21
2023-05-08T00:23:07.119Z,86.18
2023-05-08T00:25:34.278Z,86.29
2023-05-08T00:28:01.536Z,86.33
2023-05-08T00:30:28.481Z,85.57
2023-05-08T00:32:55.344Z,85.57
2023-05-08T00:35:22.194Z,85.24
2023-05-08T00:37:48.916Z,85.50
2023-05-08T00:40:16.278Z,85.16
2023-05-08T00:42:43.068Z,84.95
2023-05-08T00:45:10.183Z,85.22
2023-05-08T00:47:37.247Z,85.18
2023-05-08T00:50:05.523Z,84.92
2023-05-08T00:52:33.714Z,84.83
2023-05-08T00:55:03.119Z,84.27
2023-05-08T00:57:32.886Z,85.11
2023-05-08T01:00:01.707Z,85.01
2023-05-08T01:02:31.715Z,84.88
2023-05-08T01:04:58.637Z,84.80
2023-05-08T01:07:26.296Z,84.53
2023-05-08T01:09:53.089Z,84.19
2023-05-08T01:12:31.184Z,83.98
2023-05-08T01:15:24.110Z,84.33
2023-05-08T01:18:04.976Z,84.42
2023-05-08T01:20:49.754Z,83.84
2023-05-08T01:23:50.775Z,84.21
2023-05-08T01:26:31.731Z,84.30
2023-05-08T01:29:26.456Z,84.04
2023-05-08T01:32:12.893Z,83.54
2023-05-08T01:34:50.343Z,83.82
2023-05-08T01:37:23.897Z,83.62
2023-05-08T01:40:11.553Z,83.99
2023-05-08T01:42:58.444Z,83.98
2023-05-08T01:45:35.403Z,83.78
2023-05-08T01:48:10.947Z,84.14
2023-05-08T01:50:49.755Z,84.19
2023-05-08T01:53:33.281Z,83.91
2023-05-08T01:56:11.291Z,83.86
2023-05-08T01:58:39.485Z,83.96
2023-05-08T02:01:06.501Z,84.26
2023-05-08T02:03:35.434Z,84.17
2023-05-08T02:06:03.367Z,83.64
2023-05-08T02:08:32.201Z,84.24
2023-05-08T02:11:01.072Z,84.04
2023-05-08T02:13:30.391Z,83.72
2023-05-08T02:15:59.809Z,84.33
2023-05-08T02:18:29.072Z,83.92
2023-05-08T02:20:57.607Z,83.60
2023-05-08T02:23:26.805Z,83.63
2023-05-08T02:25:55.519Z,83.64
2023-05-08T02:28:24.141Z,83.59
2023-05-08T02:30:52.867Z,83.79
2023-05-08T02:33:21.130Z,83.98
2023-05-08T02:35:50.791Z,83.84
2023-05-08T02:38:20.943Z,83.97
2023-05-08T02:40:53.208Z,84.04
2023-05-08T02:43:20.013Z,83.80
2023-05-08T02:46:01.732Z,84.05
2023-05-08T02:48:28.515Z,84.25
2023-05-08T02:51:11.139Z,84.25
2023-05-08T02:53:51.036Z,84.16
2023-05-08T02:56:37.910Z,83.91
2023-05-08T02:59:17.061Z,84.62
2023-05-08T03:01:52.755Z,83.91
2023-05-08T03:04:34.741Z,84.69
2023-05-08T03:07:03.269Z,84.63
2023-05-08T03:09:44.629Z,84.68
2023-05-08T03:12:17.486Z,84.68
2023-05-08T03:15:02.926Z,84.55
2023-05-08T03:17:32.674Z,84.86
2023-05-08T03:20:03.877Z,84.46
2023-05-08T03:22:32.977Z,84.47
2023-05-08T03:25:02.916Z,84.67
2023-05-08T03:27:30.772Z,84.60
2023-05-08T03:29:59.769Z,84.79
2023-05-08T03:32:28.148Z,84.43
2023-05-08T03:34:58.899Z,84.94
2023-05-08T03:37:29.126Z,84.35
2023-05-08T03:39:56.626Z,84.72
2023-05-08T03:42:27.529Z,84.53
2023-05-08T03:44:54.792Z,84.65
2023-05-08T03:47:22.391Z,84.60
2023-05-08T03:49:50.454Z,84.10
2023-05-08T03:52:17.898Z,84.69
2023-05-08T03:54:44.675Z,84.44
2023-05-08T03:57:11.457Z,84.48
2023-05-08T03:59:52.604Z,84.50
2023-05-08T04:02:31.656Z,84.64
2023-05-08T04:05:09.440Z,84.76
2023-05-08T04:07:43.118Z,84.17
2023-05-08T04:10:16.740Z,84.66
2023-05-08T04:13:07.135Z,84.62
2023-05-08T04:15:42.068Z,84.45
2023-05-08T04:18:12.560Z,84.32
2023-05-08T04:20:41.697Z,84.17
2023-05-08T04:23:09.688Z,84.04
2023-05-08T04:25:39.217Z,83.99
2023-05-08T04:28:06.322Z,83.38
2023-05-08T04:30:33.951Z,83.48
2023-05-08T04:33:04.401Z,83.49
2023-05-08T04:35:31.603Z,83.16
2023-05-08T04:37:59.889Z,82.74
2023-05-08T04:40:26.705Z,82.91
2023-05-08T04:42:53.517Z,83.13
2023-05-08T04:45:20.936Z,82.72
2023-05-08T04:47:47.709Z,82.91
2023-05-08T04:50:14.553Z,82.84
2023-05-08T04:52:41.578Z,82.50
2023-05-08T04:55:09.334Z,82.09
2023-05-08T04:57:36.226Z,82.57
2023-05-08T05:00:05.144Z,81.58
2023-05-08T05:02:32.171Z,81.65
2023-05-08T05:05:01.581Z,81.47
2023-05-08T05:07:28.379Z,81.42
2023-05-08T05:09:55.207Z,81.49
2023-05-08T05:12:22.451Z,81.01
2023-05-08T05:14:49.317Z,81.18
2023-05-08T05:17:16.208Z,80.51
2023-05-08T05:19:43.201Z,80.83
2023-05-08T05:22:10.296Z,80.95
2023-05-08T05:24:37.124Z,81.52
2023-05-08T05:27:04.953Z,80.95
2023-05-08T05:29:31.878Z,80.35
2023-05-08T05:31:58.858Z,80.53
2023-05-08T05:34:25.742Z,80.16
2023-05-08T05:36:52.700Z,80.39
2023-05-08T05:39:19.442Z,79.95
2023-05-08T05:41:46.243Z,80.00
2023-05-08T05:44:13.208Z,80.19
2023-05-08T05:46:42.108Z,80.09
2023-05-08T05:49:11.956Z,80.04
2023-05-08T05:51:38.857Z,79.85
2023-05-08T05:54:05.788Z,80.06
2023-05-08T05:56:32.583Z,79.52
2023-05-08T05:58:59.475Z,79.40
2023-05-08T06:01:29.035Z,79.10
2023-05-08T06:03:55.946Z,79.08
2023-05-08T06:06:23.076Z,79.66
2023-05-08T06:08:49.925Z,79.95
2023-05-08T06:11:17.393Z,79.27
2023-05-08T06:13:45.375Z,78.96
2023-05-08T06:16:12.372Z,78.74
2023-05-08T06:18:39.143Z,79.12
2023-05-08T06:21:06.185Z,78.97
2023-05-08T06:23:33.582Z,79.02
2023-05-08T06:26:00.508Z,79.26
2023-05-08T06:28:27.754Z,79.09
2023-05-08T06:30:56.635Z,78.67
2023-05-08T06:33:26.111Z,78.25
2023-05-08T06:35:53.848Z,77.54
2023-05-08T06:38:20.908Z,77.45
2023-05-08T06:40:50.831Z,77.40
2023-05-08T06:43:17.818Z,77.18
2023-05-08T06:45:45.951Z,76.35
2023-05-08T06:48:13.642Z,75.85
2023-05-08T06:50:41.298Z,75.95
2023-05-08T06:53:09.176Z,75.97
2023-05-08T06:55:36.124Z,75.49
2023-05-08T06:58:03.256Z,75.30
2023-05-08T07:00:30.277Z,75.14
2023-05-08T07:02:57.271Z,74.40
2023-05-08T07:05:24.231Z,73.21
2023-05-08T07:07:51.225Z,73.12
2023-05-08T07:10:20.295Z,73.30
2023-05-08T07:12:48.012Z,73.01
2023-05-08T07:15:25.547Z,72.57
2023-05-08T07:17:53.888Z,71.34
2023-05-08T07:20:21.782Z,70.36
2023-05-08T07:22:49.000Z,70.59
2023-05-08T07:25:16.496Z,70.91
2023-05-08T07:27:43.622Z,70.79
2023-05-08T07:30:11.020Z,70.09
2023-05-08T07:32:39.621Z,70.53
2023-05-08T07:35:11.136Z,70.20
2023-05-08T07:37:39.521Z,70.40
2023-05-08T07:40:07.385Z,69.19
2023-05-08T07:42:44.424Z,69.85
2023-05-08T07:45:13.370Z,69.04
2023-05-08T07:47:59.080Z,68.83
2023-05-08T07:50:26.856Z,67.89
2023-05-08T07:52:54.473Z,67.87
2023-05-08T07:55:21.909Z,68.07
2023-05-08T07:57:48.877Z,67.38
2023-05-08T08:00:17.052Z,67.42
2023-05-08T08:02:45.316Z,66.90
2023-05-08T08:05:12.965Z,67.01
2023-05-08T08:07:40.300Z,66.42
2023-05-08T08:10:08.152Z,66.13
2023-05-08T08:12:35.214Z,66.26
2023-05-08T08:15:02.307Z,65.62
2023-05-08T08:17:29.532Z,64.93
2023-05-08T08:19:57.474Z,64.78
2023-05-08T08:22:25.970Z,64.77
2023-05-08T08:24:56.001Z,65.14
2023-05-08T08:27:24.175Z,65.18
2023-05-08T08:29:58.476Z,65.59
2023-05-08T08:32:31.778Z,65.64
2023-05-08T08:34:58.785Z,66.23
2023-05-08T08:37:26.647Z,65.98
2023-05-08T08:39:54.078Z,66.25
2023-05-08T08:42:21.089Z,66.55
2023-05-08T08:44:48.082Z,66.65
2023-05-08T08:47:19.472Z,66.29
2023-05-08T08:49:51.381Z,66.04
2023-05-08T08:52:18.025Z,65.80
2023-05-08T08:54:47.437Z,65.13
2023-05-08T08:57:15.738Z,64.52
2023-05-08T08:59:44.463Z,64.55
2023-05-08T09:02:15.417Z,64.47
2023-05-08T09:04:42.243Z,64.87
2023-05-08T09:07:09.644Z,63.99
2023-05-08T09:09:44.621Z,64.88
2023-05-08T09:12:14.130Z,64.63
2023-05-08T09:14:40.915Z,64.33
2023-05-08T09:17:07.935Z,63.55
2023-05-08T09:19:35.596Z,63.94
2023-05-08T09:22:06.896Z,64.06
2023-05-08T09:24:57.858Z,63.98
2023-05-08T09:27:26.423Z,64.03
2023-05-08T09:30:02.214Z,63.84
2023-05-08T09:32:33.284Z,63.67
2023-05-08T09:35:01.037Z,64.01
2023-05-08T09:37:29.206Z,63.58
2023-05-08T09:40:14.619Z,64.24
2023-05-08T09:42:41.667Z,64.31
2023-05-08T09:45:09.450Z,64.51
2023-05-08T09:47:40.409Z,64.41
2023-05-08T09:50:12.026Z,63.40
2023-05-08T09:52:39.398Z,62.74
2023-05-08T09:55:08.643Z,63.14
2023-05-08T09:57:41.253Z,63.57
2023-05-08T10:00:13.928Z,63.48
2023-05-08T10:02:43.055Z,63.68
2023-05-08T10:05:34.888Z,64.13
2023-05-08T10:08:19.995Z,64.73
2023-05-08T10:10:47.587Z,64.78
2023-05-08T10:13:14.611Z,64.71
2023-05-08T10:15:43.995Z,64.20
2023-05-08T10:18:12.473Z,64.10
2023-05-08T10:20:41.325Z,64.42
2023-05-08T10:23:15.234Z,64.66
2023-05-08T10:25:59.697Z,63.73
2023-05-08T10:28:37.083Z,64.24
2023-05-08T10:31:07.362Z,64.09
2023-05-08T10:33:36.153Z,63.50
2023-05-08T10:36:03.649Z,62.97
2023-05-08T10:38:31.471Z,62.59
2023-05-08T10:41:01.375Z,63.41
2023-05-08T10:43:31.269Z,63.44
2023-05-08T10:45:59.421Z,63.47
2023-05-08T10:48:47.578Z,63.78
2023-05-08T10:51:35.726Z,63.44
2023-05-08T10:54:09.326Z,62.25
2023-05-08T10:56:38.505Z,62.29
2023-05-08T10:59:06.566Z,62.49
2023-05-08T11:01:33.566Z,62.05
2023-05-08T11:04:00.940Z,61.44
2023-05-08T11:06:49.394Z,60.56
2023-05-08T11:09:27.167Z,60.57
2023-05-08T11:12:07.523Z,60.94
2023-05-08T11:14:37.058Z,61.26
2023-05-08T11:17:04.817Z,61.45
2023-05-08T11:19:32.153Z,59.89
2023-05-08T11:22:27.159Z,59.58
2023-05-08T11:25:09.480Z,58.02
2023-05-08T11:27:49.980Z,58.85
2023-05-08T11:30:35.154Z,58.68
2023-05-08T11:33:05.351Z,58.08
2023-05-08T11:35:49.438Z,58.83
2023-05-08T11:38:36.212Z,58.79
2023-05-08T11:41:04.739Z,58.43
2023-05-08T11:43:36.753Z,58.81
2023-05-08T11:46:17.246Z,58.94
2023-05-08T11:48:44.667Z,59.57
2023-05-08T11:51:13.658Z,59.30
2023-05-08T11:53:40.737Z,58.36
2023-05-08T11:56:08.521Z,57.26
2023-05-08T11:58:36.853Z,57.73
2023-05-08T12:01:04.382Z,58.49
2023-05-08T12:03:31.824Z,57.92
2023-05-08T12:06:00.165Z,57.57
2023-05-08T12:08:27.263Z,57.89
2023-05-08T12:10:58.212Z,58.08
2023-05-08T12:13:30.383Z,57.80
2023-05-08T12:16:01.535Z,58.27
2023-05-08T12:18:30.837Z,58.01
2023-05-08T12:21:00.395Z,58.14
2023-05-08T12:23:29.689Z,57.96
2023-05-08T12:26:01.058Z,57.53
2023-05-08T12:28:28.201Z,57.23
2023-05-08T12:30:55.289Z,56.98
2023-05-08T12:33:22.658Z,56.19
2023-05-08T12:35:49.715Z,56.39
2023-05-08T12:38:16.619Z,55.75
2023-05-08T12:40:45.994Z,55.55
2023-05-08T12:43:12.887Z,55.76
2023-05-08T12:45:42.515Z,55.73
2023-05-08T12:48:11.141Z,55.65
2023-05-08T12:50:42.723Z,55.23
2023-05-08T12:53:12.416Z,55.84
2023-05-08T12:55:39.893Z,55.32
2023-05-08T12:58:09.120Z,55.89
2023-05-08T13:00:44.207Z,56.45
2023-05-08T13:03:13.897Z,56.66
2023-05-08T13:05:45.986Z,56.80
2023-05-08T13:08:13.032Z,56.44
2023-05-08T13:10:55.492Z,56.10
2023-05-08T13:13:24.677Z,56.19
2023-05-08T13:15:53.712Z,56.69
2023-05-08T13:18:22.590Z,56.80
2023-05-08T13:20:49.491Z,56.70
2023-05-08T13:23:16.340Z,56.48
2023-05-08T13:25:43.268Z,56.08
2023-05-08T13:28:11.529Z,55.87
2023-05-08T13:30:38.603Z,55.91
2023-05-08T13:33:06.338Z,56.28
2023-05-08T13:35:34.147Z,56.07
2023-05-08T13:38:01.537Z,56.03
2023-05-08T13:40:28.896Z,55.71
2023-05-08T13:42:55.967Z,55.27
2023-05-08T13:45:22.890Z,55.01
2023-05-08T13:47:51.507Z,55.09
2023-05-08T13:50:22.496Z,55.66
2023-05-08T13:52:51.639Z,55.64
2023-05-08T13:55:22.326Z,56.29
2023-05-08T13:57:49.193Z,56.49
2023-05-08T14:00:16.326Z,56.19
2023-05-08T14:02:43.448Z,55.80
2023-05-08T14:05:10.479Z,56.03
2023-05-08T14:07:37.414Z,55.38
2023-05-08T14:10:05.094Z,55.13
2023-05-08T14:12:36.166Z,55.49
2023-05-08T14:15:05.306Z,55.16
2023-05-08T14:17:33.363Z,54.67
2023-05-08T14:20:00.826Z,54.32
2023-05-08T14:22:27.784Z,54.33
2023-05-08T14:24:54.731Z,54.38
2023-05-08T14:27:21.799Z,54.30
2023-05-08T14:29:48.762Z,54.42
2023-05-08T14:32:15.719Z,54.73
2023-05-08T14:34:42.631Z,54.66
2023-05-08T14:37:09.389Z,54.40
2023-05-08T14:39:36.203Z,53.82
2023-05-08T14:44:36.080Z,53.89
2023-05-08T14:47:03.333Z,54.21
2023-05-08T14:49:37.593Z,54.09
2023-05-08T14:52:07.057Z,54.15
2023-05-08T14:54:34.096Z,54.50
2023-05-08T14:57:01.139Z,55.14
2023-05-08T14:59:27.874Z,55.01
2023-05-08T15:01:54.631Z,54.49
2023-05-08T15:04:21.700Z,54.36
2023-05-08T15:06:48.559Z,54.65
2023-05-08T15:09:16.880Z,54.63
2023-05-08T15:11:44.029Z,55.15
2023-05-08T15:14:10.796Z,55.40
2023-05-08T15:16:37.602Z,55.59
2023-05-08T15:19:04.397Z,55.30
2023-05-08T15:21:31.184Z,55.65
2023-05-08T15:23:57.965Z,55.80
2023-05-08T15:26:24.723Z,55.71
2023-05-08T15:28:51.594Z,55.70
2023-05-08T15:31:18.674Z,55.57
2023-05-08T15:33:46.077Z,55.90
2023-05-08T15:36:13.809Z,56.00
2023-05-08T15:38:41.762Z,56.38
2023-05-08T15:41:14.805Z,56.43
2023-05-08T15:43:42.391Z,56.29
2023-05-08T15:48:49.738Z,55.61
2023-05-08T15:51:16.444Z,55.82
2023-05-08T15:53:43.166Z,55.75
2023-05-08T15:56:10.070Z,55.47
2023-05-08T15:58:38.974Z,54.79
2023-05-08T16:01:06.023Z,54.81
2023-05-08T16:03:34.328Z,54.93
2023-05-08T16:06:01.339Z,55.31
2023-05-08T16:08:29.481Z,55.74
2023-05-08T16:10:56.401Z,56.10
2023-05-08T16:13:23.719Z,56.25
2023-05-08T16:15:50.635Z,56.18
2023-05-08T16:18:17.420Z,56.40
2023-05-08T16:20:44.574Z,55.98
2023-05-08T16:23:11.248Z,56.36
2023-05-08T16:25:38.152Z,56.75
2023-05-08T16:28:04.933Z,56.78
2023-05-08T16:30:31.681Z,57.05
2023-05-08T16:32:58.406Z,57.22
2023-05-08T16:35:25.265Z,57.14
2023-05-08T16:37:52.808Z,57.26
2023-05-08T16:40:19.663Z,57.49
2023-05-08T16:42:46.392Z,57.45
2023-05-08T16:45:13.840Z,57.49
2023-05-08T16:47:40.749Z,57.76
2023-05-08T16:50:08.161Z,57.95
2023-05-08T16:52:34.952Z,57.62
2023-05-08T16:55:01.717Z,57.94
2023-05-08T16:57:28.719Z,58.25
2023-05-08T16:59:55.430Z,58.47
2023-05-08T17:02:22.327Z,58.65
2023-05-08T17:04:49.670Z,58.50
2023-05-08T17:07:17.468Z,58.90
2023-05-08T17:09:45.214Z,58.95
2023-05-08T17:12:12.001Z,58.91
2023-05-08T17:14:40.609Z,59.13
2023-05-08T17:17:07.664Z,59.24
2023-05-08T17:19:34.713Z,59.75
2023-05-08T17:22:02.187Z,59.61
2023-05-08T17:24:32.788Z,59.77
2023-05-08T17:26:59.703Z,60.11
2023-05-08T17:29:29.255Z,60.92
2023-05-08T17:31:56.600Z,61.10
2023-05-08T17:34:23.378Z,61.73
2023-05-08T17:36:50.457Z,61.81
2023-05-08T17:39:20.008Z,62.58
2023-05-08T17:41:48.085Z,63.11
2023-05-08T17:44:16.235Z,63.99
2023-05-08T17:46:43.121Z,64.49
2023-05-08T17:49:09.943Z,65.37
2023-05-08T17:51:36.792Z,65.23
2023-05-08T17:54:03.638Z,65.47
2023-05-08T17:56:31.788Z,65.76
2023-05-08T17:58:58.844Z,65.90
2023-05-08T18:01:26.296Z,66.09
2023-05-08T18:03:53.627Z,66.37
2023-05-08T18:06:20.837Z,66.57
2023-05-08T18:08:48.339Z,66.75
2023-05-08T18:11:19.591Z,67.17
2023-05-08T18:13:47.767Z,67.65
2023-05-08T18:16:16.272Z,67.89
2023-05-08T18:18:43.694Z,68.40
2023-05-08T18:21:10.525Z,68.72
2023-05-08T18:23:37.760Z,69.05
2023-05-08T18:26:04.984Z,69.38
2023-05-08T18:28:32.282Z,69.60
2023-05-08T18:30:59.357Z,69.80
2023-05-08T18:33:26.435Z,69.96
2023-05-08T18:35:53.424Z,70.02
2023-05-08T18:38:20.287Z,69.92
2023-05-08T18:40:47.409Z,69.68
2023-05-08T18:43:14.563Z,70.01
2023-05-08T18:45:42.062Z,70.20
2023-05-08T18:48:10.173Z,70.17
2023-05-08T18:50:37.331Z,70.10
2023-05-08T18:53:04.214Z,70.50
2023-05-08T18:55:30.989Z,70.88
2023-05-08T18:57:57.794Z,71.01
2023-05-08T19:00:24.719Z,71.38
2023-05-08T19:02:51.672Z,71.53
2023-05-08T19:05:18.906Z,71.35
2023-05-08T19:07:45.864Z,71.62
2023-05-08T19:10:13.148Z,71.83
2023-05-08T19:12:40.729Z,71.99
2023-05-08T19:15:09.592Z,72.41
2023-05-08T19:17:37.179Z,72.75
2023-05-08T19:20:04.515Z,73.30
2023-05-08T19:22:33.806Z,73.18
2023-05-08T19:25:03.168Z,73.71
2023-05-08T19:27:30.333Z,73.75
2023-05-08T19:29:57.300Z,73.48
2023-05-08T19:32:24.256Z,73.73
2023-05-08T19:34:51.007Z,73.86
2023-05-08T19:37:17.814Z,74.31
2023-05-08T19:39:44.870Z,74.47
2023-05-08T19:42:14.130Z,74.03
2023-05-08T19:44:41.220Z,74.46
2023-05-08T19:47:08.270Z,74.37
2023-05-08T19:49:35.098Z,74.36
2023-05-08T19:52:01.865Z,74.56
2023-05-08T19:54:30.604Z,75.06
2023-05-08T19:56:57.820Z,75.19
2023-05-08T19:59:24.851Z,75.19
2023-05-08T20:01:52.421Z,74.92
2023-05-08T20:04:19.408Z,75.24
2023-05-08T20:06:46.312Z,75.35
2023-05-08T20:09:13.070Z,75.73
2023-05-08T20:11:40.162Z,75.70
2023-05-08T20:14:06.917Z,75.72
2023-05-08T20:16:34.229Z,75.65
2023-05-08T20:19:01.993Z,75.73
2023-05-08T20:21:33.989Z,75.83
2023-05-08T20:24:01.240Z,76.10
2023-05-08T20:26:29.621Z,76.13
2023-05-08T20:28:57.294Z,75.93
2023-05-08T20:31:27.770Z,75.97
2023-05-08T20:33:54.944Z,75.82
2023-05-08T20:36:21.758Z,75.78
2023-05-08T20:38:48.649Z,75.65
2023-05-08T20:41:15.607Z,75.78
2023-05-08T20:43:42.852Z,76.04
2023-05-08T20:46:10.279Z,75.89
2023-05-08T20:48:38.606Z,75.84
2023-05-08T20:51:05.500Z,76.20
2023-05-08T20:53:32.901Z,75.92
2023-05-08T20:56:01.285Z,75.94
2023-05-08T20:58:28.125Z,76.47
2023-05-08T21:00:55.056Z,76.04
2023-05-08T21:03:22.408Z,75.94
2023-05-08T21:05:49.402Z,76.09
2023-05-08T21:08:16.175Z,76.20
2023-05-08T21:10:43.087Z,75.72
2023-05-08T21:13:09.956Z,76.12
2023-05-08T21:15:36.794Z,76.11
2023-05-08T21:18:04.008Z,76.32
2023-05-08T21:20:34.016Z,76.70
2023-05-08T21:23:00.935Z,76.57
2023-05-08T21:25:27.800Z,76.56
2023-05-08T21:27:55.496Z,76.54
2023-05-08T21:30:22.491Z,76.77
2023-05-08T21:32:49.293Z,76.86
2023-05-08T21:35:16.510Z,76.91
2023-05-08T21:37:43.583Z,77.02
2023-05-08T21:40:10.537Z,77.04
2023-05-08T21:42:37.407Z,77.39
2023-05-08T21:45:04.599Z,77.31
2023-05-08T21:47:31.487Z,77.82
2023-05-08T21:49:58.383Z,77.75
2023-05-08T21:52:26.258Z,78.09
2023-05-08T21:54:53.050Z,78.15
2023-05-08T21:57:19.889Z,78.05
2023-05-08T21:59:46.956Z,77.97
2023-05-08T22:02:13.825Z,77.95
2023-05-08T22:04:41.267Z,78.26
2023-05-08T22:07:08.042Z,78.59
2023-05-08T22:09:34.887Z,78.38
2023-05-08T22:12:02.229Z,78.27
2023-05-08T22:14:29.132Z,78.51
2023-05-08T22:16:55.947Z,78.64
2023-05-08T22:19:22.729Z,78.72
2023-05-08T22:21:49.483Z,78.58
2023-05-08T22:24:16.815Z,78.86
2023-05-08T22:26:43.637Z,78.85
2023-05-08T22:29:10.414Z,78.98
2023-05-08T22:31:37.205Z,79.22
2023-05-08T22:34:03.985Z,78.94
2023-05-08T22:36:30.804Z,79.07
2023-05-08T22:38:57.541Z,79.13
2023-05-08T22:41:24.346Z,79.65
2023-05-08T22:43:51.279Z,79.39
2023-05-08T22:46:18.690Z,79.87
2023-05-08T22:48:45.988Z,79.70
2023-05-08T22:51:13.531Z,80.15
2023-05-08T22:53:40.315Z,80.19
2023-05-08T22:56:07.179Z,80.04
2023-05-08T22:58:34.013Z,80.54
2023-05-08T23:01:00.861Z,80.51
2023-05-08T23:03:27.789Z,80.59
2023-05-08T23:05:54.925Z,81.00
2023-05-08T23:08:22.697Z,80.77
2023-05-08T23:10:49.658Z,80.70
2023-05-08T23:13:16.501Z,81.47
2023-05-08T23:15:43.239Z,81.33
2023-05-08T23:18:10.110Z,80.98
2023-05-08T23:20:36.974Z,81.78
2023-05-08T23:23:03.688Z,81.74
2023-05-08T23:25:30.684Z,81.67
2023-05-08T23:27:57.872Z,81.64
2023-05-08T23:30:24.639Z,81.92
2023-05-08T23:32:51.440Z,81.83
2023-05-08T23:35:18.292Z,81.38
2023-05-08T23:37:45.072Z,81.48
2023-05-08T23:40:12.259Z,81.50
2023-05-08T23:42:40.021Z,81.59
2023-05-08T23:45:07.974Z,81.47
2023-05-08T23:47:34.798Z,81.54
2023-05-08T23:50:01.623Z,81.60
2023-05-08T23:52:28.892Z,81.24
2023-05-08T23:54:55.776Z,81.46
2023-05-08T23:57:23.340Z,81.41
2023-05-08T23:59:50.105Z,81.74
